sensor_id;sensor_type;location;lat;lon;timestamp;temperature;humidity
19174;DHT22;9719;49.322;8.536;2022-07-18T00:01:10;19.20;46.30
19174;DHT22;9719;49.322;8.536;2022-07-18T00:06:13;19.00;46.50
19174;DHT22;9719;49.322;8.536;2022-07-18T00:11:15;18.90;47.30
19174;DHT22;9719;49.322;8.536;2022-07-18T00:16:17;18.90;47.50
19174;DHT22;9719;49.322;8.536;2022-07-18T00:21:21;18.80;47.90
19174;DHT22;9719;49.322;8.536;2022-07-18T00:26:23;18.70;47.90
19174;DHT22;9719;49.322;8.536;2022-07-18T00:31:25;18.70;48.00
19174;DHT22;9719;49.322;8.536;2022-07-18T00:36:29;18.60;48.40
19174;DHT22;9719;49.322;8.536;2022-07-18T00:41:31;18.50;48.70
19174;DHT22;9719;49.322;8.536;2022-07-18T00:46:33;18.40;48.90
19174;DHT22;9719;49.322;8.536;2022-07-18T00:51:36;18.30;49.20
19174;DHT22;9719;49.322;8.536;2022-07-18T00:56:38;18.20;49.60
19174;DHT22;9719;49.322;8.536;2022-07-18T01:01:41;18.10;49.90
19174;DHT22;9719;49.322;8.536;2022-07-18T01:06:49;18.10;50.20
19174;DHT22;9719;49.322;8.536;2022-07-18T01:11:51;18.00;50.30
19174;DHT22;9719;49.322;8.536;2022-07-18T01:16:54;17.90;50.40
19174;DHT22;9719;49.322;8.536;2022-07-18T01:21:57;17.90;50.70
19174;DHT22;9719;49.322;8.536;2022-07-18T01:26:59;17.80;51.40
19174;DHT22;9719;49.322;8.536;2022-07-18T01:32:04;17.80;51.50
19174;DHT22;9719;49.322;8.536;2022-07-18T01:37:08;17.80;51.70
19174;DHT22;9719;49.322;8.536;2022-07-18T01:42:11;17.70;52.10
19174;DHT22;9719;49.322;8.536;2022-07-18T01:47:13;17.70;52.10
19174;DHT22;9719;49.322;8.536;2022-07-18T01:52:17;17.60;52.30
19174;DHT22;9719;49.322;8.536;2022-07-18T01:57:19;17.50;52.80
19174;DHT22;9719;49.322;8.536;2022-07-18T02:02:21;17.50;53.00
19174;DHT22;9719;49.322;8.536;2022-07-18T02:07:24;17.50;53.30
19174;DHT22;9719;49.322;8.536;2022-07-18T02:12:27;17.50;53.60
19174;DHT22;9719;49.322;8.536;2022-07-18T02:17:29;17.50;53.80
19174;DHT22;9719;49.322;8.536;2022-07-18T02:22:32;17.50;53.90
19174;DHT22;9719;49.322;8.536;2022-07-18T02:27:34;17.40;54.40
19174;DHT22;9719;49.322;8.536;2022-07-18T02:32:36;17.40;54.30
19174;DHT22;9719;49.322;8.536;2022-07-18T02:37:40;17.40;54.60
19174;DHT22;9719;49.322;8.536;2022-07-18T02:42:42;17.30;54.80
19174;DHT22;9719;49.322;8.536;2022-07-18T02:47:44;17.30;54.70
19174;DHT22;9719;49.322;8.536;2022-07-18T02:52:47;17.20;55.00
19174;DHT22;9719;49.322;8.536;2022-07-18T02:57:51;17.10;55.20
19174;DHT22;9719;49.322;8.536;2022-07-18T03:02:53;17.00;55.30
19174;DHT22;9719;49.322;8.536;2022-07-18T03:07:56;17.00;55.40
19174;DHT22;9719;49.322;8.536;2022-07-18T03:12:58;16.90;55.70
19174;DHT22;9719;49.322;8.536;2022-07-18T03:18:00;16.90;55.60
19174;DHT22;9719;49.322;8.536;2022-07-18T03:23:05;16.80;55.70
19174;DHT22;9719;49.322;8.536;2022-07-18T03:28:07;16.80;55.90
19174;DHT22;9719;49.322;8.536;2022-07-18T03:33:09;16.80;55.80
19174;DHT22;9719;49.322;8.536;2022-07-18T03:38:13;16.70;55.80
19174;DHT22;9719;49.322;8.536;2022-07-18T03:43:15;16.70;56.10
19174;DHT22;9719;49.322;8.536;2022-07-18T03:48:16;16.70;56.20
19174;DHT22;9719;49.322;8.536;2022-07-18T03:53:20;16.80;56.30
19174;DHT22;9719;49.322;8.536;2022-07-18T03:58:22;16.70;55.60
19174;DHT22;9719;49.322;8.536;2022-07-18T04:03:24;16.70;56.00
19174;DHT22;9719;49.322;8.536;2022-07-18T04:08:27;16.60;55.90
19174;DHT22;9719;49.322;8.536;2022-07-18T04:13:29;16.60;56.20
19174;DHT22;9719;49.322;8.536;2022-07-18T04:18:31;16.50;56.30
19174;DHT22;9719;49.322;8.536;2022-07-18T04:23:34;16.50;56.40
19174;DHT22;9719;49.322;8.536;2022-07-18T04:28:36;16.50;56.90
19174;DHT22;9719;49.322;8.536;2022-07-18T04:33:38;16.50;57.10
19174;DHT22;9719;49.322;8.536;2022-07-18T04:38:41;16.50;57.70
19174;DHT22;9719;49.322;8.536;2022-07-18T04:43:44;16.60;58.20
19174;DHT22;9719;49.322;8.536;2022-07-18T04:48:45;16.70;58.10
19174;DHT22;9719;49.322;8.536;2022-07-18T04:53:49;16.80;57.80
19174;DHT22;9719;49.322;8.536;2022-07-18T04:58:50;16.90;57.90
19174;DHT22;9719;49.322;8.536;2022-07-18T05:03:52;17.00;57.70
19174;DHT22;9719;49.322;8.536;2022-07-18T05:08:56;17.10;57.70
19174;DHT22;9719;49.322;8.536;2022-07-18T05:13:57;17.30;57.60
19174;DHT22;9719;49.322;8.536;2022-07-18T05:18:59;17.60;57.70
19174;DHT22;9719;49.322;8.536;2022-07-18T05:24:03;17.70;57.70
19174;DHT22;9719;49.322;8.536;2022-07-18T05:29:05;17.90;57.60
19174;DHT22;9719;49.322;8.536;2022-07-18T05:34:07;18.10;57.40
19174;DHT22;9719;49.322;8.536;2022-07-18T05:39:10;18.40;56.90
19174;DHT22;9719;49.322;8.536;2022-07-18T05:44:12;18.60;56.40
19174;DHT22;9719;49.322;8.536;2022-07-18T05:49:15;18.80;55.80
19174;DHT22;9719;49.322;8.536;2022-07-18T05:54:18;19.10;55.80
19174;DHT22;9719;49.322;8.536;2022-07-18T05:59:20;19.30;55.50
19174;DHT22;9719;49.322;8.536;2022-07-18T06:04:22;19.60;55.60
19174;DHT22;9719;49.322;8.536;2022-07-18T06:09:25;19.90;55.00
19174;DHT22;9719;49.322;8.536;2022-07-18T06:14:31;20.30;54.70
19174;DHT22;9719;49.322;8.536;2022-07-18T06:19:33;20.70;54.80
19174;DHT22;9719;49.322;8.536;2022-07-18T06:24:36;21.10;54.50
19174;DHT22;9719;49.322;8.536;2022-07-18T06:29:38;21.20;54.20
19174;DHT22;9719;49.322;8.536;2022-07-18T06:34:40;21.30;53.90
19174;DHT22;9719;49.322;8.536;2022-07-18T06:39:43;21.40;53.50
19174;DHT22;9719;49.322;8.536;2022-07-18T06:44:45;21.60;53.20
19174;DHT22;9719;49.322;8.536;2022-07-18T06:49:47;21.80;52.90
19174;DHT22;9719;49.322;8.536;2022-07-18T06:54:50;22.10;53.10
19174;DHT22;9719;49.322;8.536;2022-07-18T06:59:52;22.30;52.90
19174;DHT22;9719;49.322;8.536;2022-07-18T07:04:55;22.50;52.40
19174;DHT22;9719;49.322;8.536;2022-07-18T07:09:58;22.60;51.80
19174;DHT22;9719;49.322;8.536;2022-07-18T07:15:00;22.70;51.70
19174;DHT22;9719;49.322;8.536;2022-07-18T07:20:03;22.80;51.20
19174;DHT22;9719;49.322;8.536;2022-07-18T07:25:08;23.00;51.10
19174;DHT22;9719;49.322;8.536;2022-07-18T07:30:11;23.10;50.50
19174;DHT22;9719;49.322;8.536;2022-07-18T07:35:14;23.30;50.30
19174;DHT22;9719;49.322;8.536;2022-07-18T07:40:18;23.50;49.00
19174;DHT22;9719;49.322;8.536;2022-07-18T07:45:19;23.70;48.30
19174;DHT22;9719;49.322;8.536;2022-07-18T07:50:21;24.00;47.70
19174;DHT22;9719;49.322;8.536;2022-07-18T07:55:25;24.30;46.40
19174;DHT22;9719;49.322;8.536;2022-07-18T08:00:28;24.60;45.30
19174;DHT22;9719;49.322;8.536;2022-07-18T08:05:32;24.90;44.80
19174;DHT22;9719;49.322;8.536;2022-07-18T08:10:35;25.30;43.90
19174;DHT22;9719;49.322;8.536;2022-07-18T08:15:38;25.50;42.60
19174;DHT22;9719;49.322;8.536;2022-07-18T08:20:40;25.90;41.90
19174;DHT22;9719;49.322;8.536;2022-07-18T08:25:44;26.20;41.60
19174;DHT22;9719;49.322;8.536;2022-07-18T08:30:46;26.60;40.10
19174;DHT22;9719;49.322;8.536;2022-07-18T08:35:48;26.90;38.60
19174;DHT22;9719;49.322;8.536;2022-07-18T08:40:53;27.10;38.80
19174;DHT22;9719;49.322;8.536;2022-07-18T08:45:57;27.50;37.40
19174;DHT22;9719;49.322;8.536;2022-07-18T08:51:01;27.80;36.60
19174;DHT22;9719;49.322;8.536;2022-07-18T08:56:05;28.10;37.00
19174;DHT22;9719;49.322;8.536;2022-07-18T09:01:07;28.30;35.60
19174;DHT22;9719;49.322;8.536;2022-07-18T09:06:10;28.70;34.90
19174;DHT22;9719;49.322;8.536;2022-07-18T09:11:14;29.00;34.50
19174;DHT22;9719;49.322;8.536;2022-07-18T09:16:15;29.30;32.80
19174;DHT22;9719;49.322;8.536;2022-07-18T09:21:19;29.70;31.70
19174;DHT22;9719;49.322;8.536;2022-07-18T09:26:41;30.00;31.10
19174;DHT22;9719;49.322;8.536;2022-07-18T09:31:48;30.70;31.40
19174;DHT22;9719;49.322;8.536;2022-07-18T09:36:55;32.40;28.10
19174;DHT22;9719;49.322;8.536;2022-07-18T09:42:13;33.10;27.00
19174;DHT22;9719;49.322;8.536;2022-07-18T09:47:15;33.90;25.90
19174;DHT22;9719;49.322;8.536;2022-07-18T09:52:19;34.80;23.60
19174;DHT22;9719;49.322;8.536;2022-07-18T09:57:26;35.80;21.90
19174;DHT22;9719;49.322;8.536;2022-07-18T10:02:32;37.20;21.70
19174;DHT22;9719;49.322;8.536;2022-07-18T10:07:34;38.80;19.40
19174;DHT22;9719;49.322;8.536;2022-07-18T10:12:38;40.00;17.30
19174;DHT22;9719;49.322;8.536;2022-07-18T10:17:40;40.70;15.30
19174;DHT22;9719;49.322;8.536;2022-07-18T10:22:43;40.90;14.80
19174;DHT22;9719;49.322;8.536;2022-07-18T10:27:52;40.90;14.10
19174;DHT22;9719;49.322;8.536;2022-07-18T10:32:54;40.40;13.60
19174;DHT22;9719;49.322;8.536;2022-07-18T10:38:00;39.80;13.70
19174;DHT22;9719;49.322;8.536;2022-07-18T10:43:34;39.40;13.20
19174;DHT22;9719;49.322;8.536;2022-07-18T10:48:53;38.90;13.20
19174;DHT22;9719;49.322;8.536;2022-07-18T10:53:56;38.50;13.90
19174;DHT22;9719;49.322;8.536;2022-07-18T10:59:02;38.20;14.00
19174;DHT22;9719;49.322;8.536;2022-07-18T11:04:22;37.90;12.40
19174;DHT22;9719;49.322;8.536;2022-07-18T11:09:43;37.40;13.20
19174;DHT22;9719;49.322;8.536;2022-07-18T11:15:09;37.30;14.80
19174;DHT22;9719;49.322;8.536;2022-07-18T11:20:39;37.30;14.70
19174;DHT22;9719;49.322;8.536;2022-07-18T11:25:42;37.20;14.00
19174;DHT22;9719;49.322;8.536;2022-07-18T11:30:46;37.00;13.50
19174;DHT22;9719;49.322;8.536;2022-07-18T11:36:03;36.80;13.30
19174;DHT22;9719;49.322;8.536;2022-07-18T11:41:06;36.60;13.90
19174;DHT22;9719;49.322;8.536;2022-07-18T11:46:14;36.50;13.30
19174;DHT22;9719;49.322;8.536;2022-07-18T11:51:19;36.50;13.50
19174;DHT22;9719;49.322;8.536;2022-07-18T11:56:22;36.50;13.70
19174;DHT22;9719;49.322;8.536;2022-07-18T12:01:32;36.60;13.60
19174;DHT22;9719;49.322;8.536;2022-07-18T12:06:34;36.70;13.80
19174;DHT22;9719;49.322;8.536;2022-07-18T12:11:37;36.70;14.10
19174;DHT22;9719;49.322;8.536;2022-07-18T12:16:42;36.90;13.90
19174;DHT22;9719;49.322;8.536;2022-07-18T12:21:47;36.90;12.40
19174;DHT22;9719;49.322;8.536;2022-07-18T12:32:16;36.80;12.90
19174;DHT22;9719;49.322;8.536;2022-07-18T12:37:23;36.70;13.00
19174;DHT22;9719;49.322;8.536;2022-07-18T12:42:30;36.90;12.60
19174;DHT22;9719;49.322;8.536;2022-07-18T12:47:34;36.90;12.50
19174;DHT22;9719;49.322;8.536;2022-07-18T12:52:36;37.00;12.70
19174;DHT22;9719;49.322;8.536;2022-07-18T12:57:38;36.90;12.20
19174;DHT22;9719;49.322;8.536;2022-07-18T13:02:42;37.00;13.10
19174;DHT22;9719;49.322;8.536;2022-07-18T13:07:44;37.00;13.20
19174;DHT22;9719;49.322;8.536;2022-07-18T13:12:46;37.00;13.50
19174;DHT22;9719;49.322;8.536;2022-07-18T13:17:49;36.90;12.00
19174;DHT22;9719;49.322;8.536;2022-07-18T13:22:52;36.80;12.10
19174;DHT22;9719;49.322;8.536;2022-07-18T13:27:54;36.80;12.00
19174;DHT22;9719;49.322;8.536;2022-07-18T13:32:57;36.90;13.10
19174;DHT22;9719;49.322;8.536;2022-07-18T13:37:59;37.00;12.90
19174;DHT22;9719;49.322;8.536;2022-07-18T13:43:01;37.00;12.50
19174;DHT22;9719;49.322;8.536;2022-07-18T13:48:05;36.90;12.70
19174;DHT22;9719;49.322;8.536;2022-07-18T13:53:07;36.80;13.20
19174;DHT22;9719;49.322;8.536;2022-07-18T13:58:09;36.90;13.30
19174;DHT22;9719;49.322;8.536;2022-07-18T14:03:12;36.80;13.20
19174;DHT22;9719;49.322;8.536;2022-07-18T14:08:14;36.80;13.70
19174;DHT22;9719;49.322;8.536;2022-07-18T14:13:16;36.90;13.40
19174;DHT22;9719;49.322;8.536;2022-07-18T14:18:20;36.80;13.70
19174;DHT22;9719;49.322;8.536;2022-07-18T14:23:21;36.70;13.70
19174;DHT22;9719;49.322;8.536;2022-07-18T14:28:23;36.60;14.10
19174;DHT22;9719;49.322;8.536;2022-07-18T14:33:27;36.60;15.40
19174;DHT22;9719;49.322;8.536;2022-07-18T14:38:29;36.90;14.20
19174;DHT22;9719;49.322;8.536;2022-07-18T14:43:30;36.40;14.60
19174;DHT22;9719;49.322;8.536;2022-07-18T14:48:34;36.40;14.60
19174;DHT22;9719;49.322;8.536;2022-07-18T14:53:36;36.50;14.20
19174;DHT22;9719;49.322;8.536;2022-07-18T14:58:38;36.40;14.50
19174;DHT22;9719;49.322;8.536;2022-07-18T15:03:42;36.30;14.80
19174;DHT22;9719;49.322;8.536;2022-07-18T15:08:44;36.40;14.50
19174;DHT22;9719;49.322;8.536;2022-07-18T15:13:46;36.30;14.80
19174;DHT22;9719;49.322;8.536;2022-07-18T15:18:49;36.20;14.70
19174;DHT22;9719;49.322;8.536;2022-07-18T15:23:51;36.20;14.90
19174;DHT22;9719;49.322;8.536;2022-07-18T15:28:53;36.00;14.90
19174;DHT22;9719;49.322;8.536;2022-07-18T15:33:57;35.90;14.50
19174;DHT22;9719;49.322;8.536;2022-07-18T15:38:59;35.70;14.60
19174;DHT22;9719;49.322;8.536;2022-07-18T15:44:00;35.60;15.30
19174;DHT22;9719;49.322;8.536;2022-07-18T15:49:04;35.50;14.80
19174;DHT22;9719;49.322;8.536;2022-07-18T15:54:06;35.40;14.70
19174;DHT22;9719;49.322;8.536;2022-07-18T15:59:08;35.20;16.50
19174;DHT22;9719;49.322;8.536;2022-07-18T16:04:11;35.20;17.80
19174;DHT22;9719;49.322;8.536;2022-07-18T16:09:13;35.10;17.60
19174;DHT22;9719;49.322;8.536;2022-07-18T16:14:15;35.10;17.60
19174;DHT22;9719;49.322;8.536;2022-07-18T16:19:18;35.00;17.20
19174;DHT22;9719;49.322;8.536;2022-07-18T16:24:20;35.00;19.10
19174;DHT22;9719;49.322;8.536;2022-07-18T16:29:24;35.00;17.00
19174;DHT22;9719;49.322;8.536;2022-07-18T16:34:27;34.90;17.10
19174;DHT22;9719;49.322;8.536;2022-07-18T16:39:29;34.90;17.30
19174;DHT22;9719;49.322;8.536;2022-07-18T16:44:31;34.90;17.90
19174;DHT22;9719;49.322;8.536;2022-07-18T16:49:35;34.90;17.70
19174;DHT22;9719;49.322;8.536;2022-07-18T16:54:38;34.90;17.60
19174;DHT22;9719;49.322;8.536;2022-07-18T16:59:40;34.80;17.40
19174;DHT22;9719;49.322;8.536;2022-07-18T17:04:44;34.80;18.10
19174;DHT22;9719;49.322;8.536;2022-07-18T17:09:46;34.70;17.20
19174;DHT22;9719;49.322;8.536;2022-07-18T17:14:49;34.60;18.30
19174;DHT22;9719;49.322;8.536;2022-07-18T17:19:55;34.60;17.30
19174;DHT22;9719;49.322;8.536;2022-07-18T17:24:57;34.60;17.30
19174;DHT22;9719;49.322;8.536;2022-07-18T17:29:59;34.50;18.90
19174;DHT22;9719;49.322;8.536;2022-07-18T17:35:04;34.40;18.70
19174;DHT22;9719;49.322;8.536;2022-07-18T17:40:07;34.20;22.00
19174;DHT22;9719;49.322;8.536;2022-07-18T17:45:11;33.90;22.00
19174;DHT22;9719;49.322;8.536;2022-07-18T17:50:15;33.60;23.10
19174;DHT22;9719;49.322;8.536;2022-07-18T17:55:18;33.30;21.30
19174;DHT22;9719;49.322;8.536;2022-07-18T18:00:20;33.10;23.10
19174;DHT22;9719;49.322;8.536;2022-07-18T18:05:24;32.90;23.80
19174;DHT22;9719;49.322;8.536;2022-07-18T18:10:26;32.70;25.90
19174;DHT22;9719;49.322;8.536;2022-07-18T18:15:28;32.50;25.20
19174;DHT22;9719;49.322;8.536;2022-07-18T18:20:32;32.30;27.40
19174;DHT22;9719;49.322;8.536;2022-07-18T18:25:34;32.10;26.40
19174;DHT22;9719;49.322;8.536;2022-07-18T18:30:37;32.00;26.70
19174;DHT22;9719;49.322;8.536;2022-07-18T18:35:42;31.90;27.10
19174;DHT22;9719;49.322;8.536;2022-07-18T18:40:44;31.70;27.20
19174;DHT22;9719;49.322;8.536;2022-07-18T18:45:46;31.60;27.50
19174;DHT22;9719;49.322;8.536;2022-07-18T18:50:49;31.40;28.60
19174;DHT22;9719;49.322;8.536;2022-07-18T18:55:51;31.30;29.40
19174;DHT22;9719;49.322;8.536;2022-07-18T19:00:53;31.10;30.70
19174;DHT22;9719;49.322;8.536;2022-07-18T19:05:56;30.90;30.80
19174;DHT22;9719;49.322;8.536;2022-07-18T19:10:58;30.70;31.00
19174;DHT22;9719;49.322;8.536;2022-07-18T19:16:00;30.30;33.20
19174;DHT22;9719;49.322;8.536;2022-07-18T19:21:04;30.00;32.90
19174;DHT22;9719;49.322;8.536;2022-07-18T19:26:06;29.60;31.70
19174;DHT22;9719;49.322;8.536;2022-07-18T19:31:08;29.30;33.00
19174;DHT22;9719;49.322;8.536;2022-07-18T19:36:11;29.10;33.50
19174;DHT22;9719;49.322;8.536;2022-07-18T19:41:13;28.80;34.20
19174;DHT22;9719;49.322;8.536;2022-07-18T19:46:15;28.60;35.10
19174;DHT22;9719;49.322;8.536;2022-07-18T19:51:19;28.40;35.00
19174;DHT22;9719;49.322;8.536;2022-07-18T19:56:22;28.10;35.50
19174;DHT22;9719;49.322;8.536;2022-07-18T20:01:24;27.90;34.50
19174;DHT22;9719;49.322;8.536;2022-07-18T20:06:27;27.60;35.70
19174;DHT22;9719;49.322;8.536;2022-07-18T20:11:29;27.40;36.10
19174;DHT22;9719;49.322;8.536;2022-07-18T20:16:31;27.10;36.60
19174;DHT22;9719;49.322;8.536;2022-07-18T20:21:34;27.00;37.10
19174;DHT22;9719;49.322;8.536;2022-07-18T20:26:36;26.80;37.10
19174;DHT22;9719;49.322;8.536;2022-07-18T20:31:39;26.70;37.20
19174;DHT22;9719;49.322;8.536;2022-07-18T20:36:42;26.50;37.70
19174;DHT22;9719;49.322;8.536;2022-07-18T20:41:44;26.40;37.90
19174;DHT22;9719;49.322;8.536;2022-07-18T20:46:46;26.30;38.90
19174;DHT22;9719;49.322;8.536;2022-07-18T20:51:49;26.20;39.70
19174;DHT22;9719;49.322;8.536;2022-07-18T20:56:51;26.10;40.10
19174;DHT22;9719;49.322;8.536;2022-07-18T21:01:54;26.00;40.40
19174;DHT22;9719;49.322;8.536;2022-07-18T21:06:58;25.70;40.00
19174;DHT22;9719;49.322;8.536;2022-07-18T21:12:00;25.50;40.50
19174;DHT22;9719;49.322;8.536;2022-07-18T21:17:02;25.30;41.40
19174;DHT22;9719;49.322;8.536;2022-07-18T21:22:05;25.10;42.80
19174;DHT22;9719;49.322;8.536;2022-07-18T21:27:07;24.80;42.70
19174;DHT22;9719;49.322;8.536;2022-07-18T21:32:09;24.70;43.60
19174;DHT22;9719;49.322;8.536;2022-07-18T21:37:12;24.50;44.30
19174;DHT22;9719;49.322;8.536;2022-07-18T21:42:15;24.30;44.60
19174;DHT22;9719;49.322;8.536;2022-07-18T21:47:17;24.20;44.80
19174;DHT22;9719;49.322;8.536;2022-07-18T21:52:21;24.10;45.60
19174;DHT22;9719;49.322;8.536;2022-07-18T21:57:24;24.00;45.20
19174;DHT22;9719;49.322;8.536;2022-07-18T22:02:26;24.00;45.40
19174;DHT22;9719;49.322;8.536;2022-07-18T22:07:31;23.90;45.90
19174;DHT22;9719;49.322;8.536;2022-07-18T22:12:33;23.90;45.90
19174;DHT22;9719;49.322;8.536;2022-07-18T22:17:35;23.90;46.10
19174;DHT22;9719;49.322;8.536;2022-07-18T22:22:38;23.90;45.90
19174;DHT22;9719;49.322;8.536;2022-07-18T22:27:40;23.80;46.20
19174;DHT22;9719;49.322;8.536;2022-07-18T22:32:43;23.80;46.50
19174;DHT22;9719;49.322;8.536;2022-07-18T22:37:46;23.80;46.40
19174;DHT22;9719;49.322;8.536;2022-07-18T22:42:48;23.70;46.40
19174;DHT22;9719;49.322;8.536;2022-07-18T22:47:50;23.80;47.00
19174;DHT22;9719;49.322;8.536;2022-07-18T22:52:53;23.70;46.70
19174;DHT22;9719;49.322;8.536;2022-07-18T22:57:55;23.60;47.10
19174;DHT22;9719;49.322;8.536;2022-07-18T23:02:57;23.40;47.60
19174;DHT22;9719;49.322;8.536;2022-07-18T23:08:02;23.20;47.20
19174;DHT22;9719;49.322;8.536;2022-07-18T23:13:04;23.00;47.60
19174;DHT22;9719;49.322;8.536;2022-07-18T23:18:07;22.80;48.00
19174;DHT22;9719;49.322;8.536;2022-07-18T23:23:10;22.70;48.90
19174;DHT22;9719;49.322;8.536;2022-07-18T23:28:12;22.60;49.00
19174;DHT22;9719;49.322;8.536;2022-07-18T23:33:14;22.50;49.30
19174;DHT22;9719;49.322;8.536;2022-07-18T23:38:17;22.40;49.30
19174;DHT22;9719;49.322;8.536;2022-07-18T23:43:20;22.10;49.60
19174;DHT22;9719;49.322;8.536;2022-07-18T23:48:22;21.80;50.00
19174;DHT22;9719;49.322;8.536;2022-07-18T23:53:25;21.50;50.60
19174;DHT22;9719;49.322;8.536;2022-07-18T23:58:27;21.40;51.20
